createdAt,value
2018-02-07T00:02:24.194Z,65.12
2018-02-07T00:04:50.442Z,65.28
2018-02-07T00:07:16.750Z,65.10
2018-02-07T00:09:43.054Z,65.30
2018-02-07T00:12:09.415Z,64.86
2018-02-07T00:14:35.718Z,64.98
2018-02-07T00:17:01.994Z,64.69
2018-02-07T00:19:28.334Z,64.63
2018-02-07T00:21:55.336Z,64.35
2018-02-07T00:24:21.591Z,64.21
2018-02-07T00:26:47.856Z,64.25
2018-02-07T00:29:14.837Z,64.29
2018-02-07T00:31:41.092Z,64.22
2018-02-07T00:34:07.380Z,64.02
2018-02-07T00:36:33.655Z,64.64
2018-02-07T00:38:59.939Z,64.69
2018-02-07T00:41:26.305Z,64.64
2018-02-07T00:43:52.580Z,64.71
2018-02-07T00:48:52.494Z,64.94
2018-02-07T00:51:19.595Z,65.19
2018-02-07T00:53:45.923Z,65.36
2018-02-07T00:56:12.140Z,65.65
2018-02-07T00:58:38.411Z,65.80
2018-02-07T01:01:04.793Z,65.92
2018-02-07T01:03:31.142Z,65.86
2018-02-07T01:05:57.432Z,65.71
2018-02-07T01:08:24.435Z,65.96
2018-02-07T01:10:50.754Z,66.10
2018-02-07T01:13:17.043Z,65.88
2018-02-07T01:15:44.042Z,65.99
2018-02-07T01:18:10.288Z,66.34
2018-02-07T01:20:36.579Z,66.53
2018-02-07T01:23:02.879Z,66.78
2018-02-07T01:25:29.856Z,66.67
2018-02-07T01:27:56.104Z,67.53
2018-02-07T01:30:22.350Z,67.84
2018-02-07T01:32:48.646Z,67.44
2018-02-07T01:35:14.914Z,67.43
2018-02-07T01:37:41.204Z,67.33
2018-02-07T01:40:07.490Z,67.52
2018-02-07T01:42:33.782Z,67.84
2018-02-07T01:45:00.107Z,68.00
2018-02-07T01:47:26.363Z,67.65
2018-02-07T01:49:52.671Z,67.52
2018-02-07T01:52:18.945Z,67.97
2018-02-07T01:54:45.311Z,68.42
2018-02-07T01:57:11.583Z,68.95
2018-02-07T01:59:37.871Z,69.07
2018-02-07T02:02:04.166Z,68.78
2018-02-07T02:04:30.427Z,68.34
2018-02-07T02:06:56.722Z,68.39
2018-02-07T02:09:23.865Z,68.16
2018-02-07T02:11:50.147Z,68.23
2018-02-07T02:14:16.457Z,68.23
2018-02-07T02:16:42.708Z,68.16
2018-02-07T02:19:08.987Z,68.32
2018-02-07T02:21:35.338Z,68.26
2018-02-07T02:24:02.351Z,68.06
2018-02-07T02:26:28.644Z,67.85
2018-02-07T02:28:54.896Z,67.68
2018-02-07T02:31:21.181Z,67.95
2018-02-07T02:33:48.189Z,68.09
2018-02-07T02:36:33.196Z,68.10
2018-02-07T02:39:00.202Z,68.21
2018-02-07T02:41:26.489Z,68.42
2018-02-07T02:43:52.768Z,68.19
2018-02-07T02:46:19.066Z,68.14
2018-02-07T02:48:45.461Z,68.24
2018-02-07T02:51:12.519Z,68.78
2018-02-07T02:53:39.585Z,68.71
2018-02-07T02:56:05.943Z,68.65
2018-02-07T02:58:32.204Z,68.58
2018-02-07T03:00:58.502Z,68.12
2018-02-07T03:03:24.784Z,68.01
2018-02-07T03:05:51.882Z,68.40
2018-02-07T03:08:18.270Z,68.30
2018-02-07T03:10:44.601Z,68.45
2018-02-07T03:13:11.907Z,68.27
2018-02-07T03:15:38.639Z,68.58
2018-02-07T03:18:04.979Z,68.86
2018-02-07T03:20:31.439Z,68.91
2018-02-07T03:22:57.873Z,69.29
2018-02-07T03:25:24.231Z,68.99
2018-02-07T03:27:51.271Z,69.03
2018-02-07T03:30:18.370Z,69.04
2018-02-07T03:32:44.725Z,69.07
2018-02-07T03:35:11.089Z,68.83
2018-02-07T03:37:38.143Z,68.58
2018-02-07T03:40:05.176Z,68.05
2018-02-07T03:42:32.224Z,67.78
2018-02-07T03:44:59.376Z,67.89
2018-02-07T03:47:26.478Z,67.90
2018-02-07T03:49:52.764Z,68.09
2018-02-07T03:52:20.235Z,67.98
2018-02-07T03:54:46.521Z,67.98
2018-02-07T03:57:12.816Z,67.97
2018-02-07T03:59:39.112Z,67.87
2018-02-07T04:02:06.193Z,67.71
2018-02-07T04:04:32.489Z,67.60
2018-02-07T04:06:59.536Z,67.58
2018-02-07T04:09:25.940Z,67.67
2018-02-07T04:11:53.710Z,67.41
2018-02-07T04:14:20.052Z,67.18
2018-02-07T04:16:46.291Z,67.18
2018-02-07T04:19:13.335Z,66.96
2018-02-07T04:21:40.348Z,66.74
2018-02-07T04:24:06.610Z,67.02
2018-02-07T04:26:33.634Z,67.23
2018-02-07T04:28:59.954Z,67.24
2018-02-07T04:31:26.211Z,67.56
2018-02-07T04:33:52.512Z,67.51
2018-02-07T04:36:18.771Z,67.67
2018-02-07T04:38:45.831Z,67.51
2018-02-07T04:41:12.951Z,67.73
2018-02-07T04:43:39.329Z,67.71
2018-02-07T04:46:05.617Z,67.75
2018-02-07T04:48:31.947Z,67.89
2018-02-07T04:50:58.257Z,68.09
2018-02-07T04:53:24.563Z,68.10
2018-02-07T04:55:50.835Z,68.03
2018-02-07T04:58:17.154Z,68.05
2018-02-07T05:00:43.492Z,68.19
2018-02-07T05:03:09.814Z,67.71
2018-02-07T05:05:36.147Z,67.72
2018-02-07T05:08:02.422Z,67.82
2018-02-07T05:10:29.432Z,67.91
2018-02-07T05:12:55.718Z,68.50
2018-02-07T05:15:21.996Z,68.82
2018-02-07T05:17:48.360Z,68.87
2018-02-07T05:20:15.446Z,69.11
2018-02-07T05:22:41.734Z,68.69
2018-02-07T05:25:08.747Z,68.43
2018-02-07T05:27:35.068Z,67.75
2018-02-07T05:30:01.347Z,67.14
2018-02-07T05:32:28.353Z,67.22
2018-02-07T05:34:54.673Z,67.41
2018-02-07T05:37:21.005Z,66.94
2018-02-07T05:39:47.268Z,67.58
2018-02-07T05:42:13.551Z,67.42
2018-02-07T05:44:39.827Z,67.25
2018-02-07T05:47:06.154Z,67.66
2018-02-07T05:49:32.442Z,68.08
2018-02-07T05:51:58.719Z,68.16
2018-02-07T05:54:25.731Z,67.95
2018-02-07T05:56:52.956Z,68.09
2018-02-07T05:59:19.284Z,68.04
2018-02-07T06:01:45.560Z,68.40
2018-02-07T06:04:11.884Z,67.85
2018-02-07T06:06:38.189Z,67.60
2018-02-07T06:09:04.491Z,68.09
2018-02-07T06:11:30.786Z,67.86
2018-02-07T06:13:57.102Z,67.97
2018-02-07T06:16:23.407Z,67.64
2018-02-07T06:18:49.650Z,67.69
2018-02-07T06:21:15.957Z,67.44
2018-02-07T06:23:42.204Z,67.31
2018-02-07T06:26:08.472Z,67.14
2018-02-07T06:28:36.235Z,67.47
2018-02-07T06:31:02.479Z,66.18
2018-02-07T06:33:28.756Z,65.13
2018-02-07T06:35:55.021Z,64.90
2018-02-07T06:38:21.324Z,66.12
2018-02-07T06:40:47.641Z,65.56
2018-02-07T06:43:13.923Z,65.50
2018-02-07T06:45:40.247Z,66.88
2018-02-07T06:48:08.038Z,66.54
2018-02-07T06:50:42.120Z,65.69
2018-02-07T06:53:08.423Z,66.74
2018-02-07T06:55:34.680Z,66.12
2018-02-07T06:58:01.139Z,65.21
2018-02-07T07:00:27.521Z,64.58
2018-02-07T07:02:53.933Z,63.87
2018-02-07T07:05:20.231Z,63.15
2018-02-07T07:07:47.137Z,62.72
2018-02-07T07:10:13.467Z,63.24
2018-02-07T07:12:39.999Z,63.36
2018-02-07T07:15:06.319Z,63.76
2018-02-07T07:17:32.588Z,63.83
2018-02-07T07:19:58.936Z,64.02
2018-02-07T07:22:25.296Z,64.00
2018-02-07T07:24:51.622Z,63.72
2018-02-07T07:27:17.964Z,64.16
2018-02-07T07:29:44.284Z,63.78
2018-02-07T07:32:10.645Z,63.86
2018-02-07T07:34:36.940Z,63.11
2018-02-07T07:37:03.966Z,62.90
2018-02-07T07:39:30.266Z,62.51
2018-02-07T07:41:56.658Z,62.16
2018-02-07T07:44:23.007Z,61.86
2018-02-07T07:46:49.279Z,60.77
2018-02-07T07:49:16.415Z,60.15
2018-02-07T07:54:16.356Z,59.98
2018-02-07T07:56:42.688Z,59.65
2018-02-07T07:59:09.039Z,58.39
2018-02-07T08:01:35.320Z,57.97
2018-02-07T08:04:01.594Z,57.83
2018-02-07T08:06:27.884Z,56.81
2018-02-07T08:08:54.150Z,56.83
2018-02-07T08:11:20.386Z,57.22
2018-02-07T08:13:46.696Z,57.16
2018-02-07T08:16:13.024Z,56.58
2018-02-07T08:18:39.270Z,56.16
2018-02-07T08:21:05.544Z,55.96
2018-02-07T08:23:31.818Z,56.22
2018-02-07T08:25:58.097Z,55.63
2018-02-07T08:28:24.392Z,55.22
2018-02-07T08:30:50.763Z,54.27
2018-02-07T08:33:17.037Z,53.98
2018-02-07T08:35:43.378Z,54.31
2018-02-07T08:38:09.661Z,54.05
2018-02-07T08:40:35.923Z,52.94
2018-02-07T08:43:02.200Z,51.90
2018-02-07T08:45:28.488Z,50.90
2018-02-07T08:47:54.740Z,50.54
2018-02-07T08:50:21.811Z,52.74
2018-02-07T08:52:48.804Z,53.49
2018-02-07T08:55:15.056Z,52.64
2018-02-07T08:57:41.361Z,51.87
2018-02-07T09:00:07.705Z,51.89
2018-02-07T09:02:33.948Z,52.10
2018-02-07T09:05:00.268Z,51.76
2018-02-07T09:07:26.642Z,50.81
2018-02-07T09:09:52.942Z,50.65
2018-02-07T09:12:19.276Z,50.46
2018-02-07T09:14:45.603Z,51.26
2018-02-07T09:17:11.978Z,50.46
2018-02-07T09:19:38.249Z,49.53
2018-02-07T09:22:04.561Z,49.35
2018-02-07T09:24:30.812Z,49.01
2018-02-07T09:26:57.077Z,48.82
2018-02-07T09:29:24.218Z,48.50
2018-02-07T09:31:50.640Z,49.10
2018-02-07T09:34:16.898Z,48.84
2018-02-07T09:36:43.895Z,48.93
2018-02-07T09:39:10.177Z,48.06
2018-02-07T09:41:36.446Z,47.49
2018-02-07T09:44:02.931Z,47.73
2018-02-07T09:46:30.094Z,48.11
2018-02-07T09:48:57.258Z,49.01
2018-02-07T09:51:23.532Z,48.90
2018-02-07T09:53:49.843Z,48.71
2018-02-07T09:56:16.156Z,48.08
2018-02-07T09:58:42.720Z,47.48
2018-02-07T10:01:09.069Z,47.02
2018-02-07T10:03:35.354Z,45.94
2018-02-07T10:06:01.612Z,46.42
2018-02-07T10:08:27.888Z,46.74
2018-02-07T10:10:54.148Z,45.83
2018-02-07T10:13:20.895Z,45.56
2018-02-07T10:15:47.322Z,45.72
2018-02-07T10:18:13.628Z,46.30
2018-02-07T10:20:40.634Z,46.77
2018-02-07T10:23:07.043Z,46.46
2018-02-07T10:25:33.371Z,46.58
2018-02-07T10:27:59.627Z,46.38
2018-02-07T10:30:25.931Z,47.42
2018-02-07T10:32:52.167Z,47.03
2018-02-07T10:35:18.497Z,46.88
2018-02-07T10:37:44.761Z,46.27
2018-02-07T10:40:11.067Z,47.46
2018-02-07T10:42:37.347Z,47.07
2018-02-07T10:45:03.677Z,46.70
2018-02-07T10:47:30.676Z,46.20
2018-02-07T10:49:57.036Z,46.17
2018-02-07T10:52:23.352Z,45.74
2018-02-07T10:54:49.616Z,45.44
2018-02-07T10:57:15.872Z,45.43
2018-02-07T10:59:42.128Z,45.63
2018-02-07T11:02:08.452Z,46.00
2018-02-07T11:04:34.764Z,45.01
2018-02-07T11:07:01.075Z,45.31
2018-02-07T11:09:27.382Z,45.44
2018-02-07T11:11:54.449Z,45.08
2018-02-07T11:14:20.732Z,45.29
2018-02-07T11:16:47.126Z,45.42
2018-02-07T11:19:13.414Z,45.63
2018-02-07T11:21:39.690Z,45.57
2018-02-07T11:24:05.945Z,44.37
2018-02-07T11:26:32.249Z,42.15
2018-02-07T11:28:58.498Z,41.86
2018-02-07T11:31:24.797Z,40.68
2018-02-07T11:33:51.099Z,40.96
2018-02-07T11:36:18.137Z,39.69
2018-02-07T11:38:44.453Z,37.21
2018-02-07T11:41:11.671Z,36.14
2018-02-07T11:43:38.024Z,37.72
2018-02-07T11:46:04.385Z,37.37
2018-02-07T11:48:30.744Z,39.50
2018-02-07T11:50:57.764Z,40.43
2018-02-07T11:53:24.057Z,40.28
2018-02-07T11:55:50.419Z,38.97
2018-02-07T11:58:16.756Z,37.81
2018-02-07T12:00:43.784Z,37.28
2018-02-07T12:03:10.252Z,37.40
2018-02-07T12:05:36.566Z,36.97
2018-02-07T12:08:03.794Z,36.12
2018-02-07T12:10:30.097Z,36.07
2018-02-07T12:12:57.110Z,36.26
2018-02-07T12:15:23.391Z,35.38
2018-02-07T12:17:49.675Z,34.83
2018-02-07T12:20:15.915Z,32.66
2018-02-07T12:22:42.971Z,27.95
2018-02-07T12:25:09.962Z,28.44
2018-02-07T12:27:36.276Z,28.72
2018-02-07T12:30:02.529Z,29.12
2018-02-07T12:32:28.791Z,26.10
2018-02-07T12:34:55.812Z,23.43
2018-02-07T12:37:22.094Z,21.85
2018-02-07T12:39:55.310Z,21.33
2018-02-07T12:42:21.607Z,20.89
2018-02-07T12:44:47.881Z,19.59
2018-02-07T12:47:14.167Z,19.35
2018-02-07T12:49:40.433Z,18.36
2018-02-07T12:52:06.707Z,17.80
2018-02-07T12:54:33.855Z,17.71
2018-02-07T12:57:00.856Z,17.21
2018-02-07T12:59:27.135Z,16.61
2018-02-07T13:01:54.134Z,17.53
2018-02-07T13:04:20.426Z,17.02
2018-02-07T13:06:47.425Z,17.51
2018-02-07T13:09:13.736Z,19.24
2018-02-07T13:11:40.030Z,20.23
2018-02-07T13:14:07.016Z,19.81
2018-02-07T13:16:33.312Z,19.66
2018-02-07T13:19:00.299Z,19.78
2018-02-07T13:21:26.592Z,21.51
2018-02-07T13:23:53.563Z,21.38
2018-02-07T13:26:19.899Z,22.11
2018-02-07T13:28:46.169Z,20.89
2018-02-07T13:31:12.443Z,19.38
2018-02-07T13:33:38.745Z,18.78
2018-02-07T13:36:05.928Z,18.00
2018-02-07T13:38:32.168Z,17.48
2018-02-07T13:40:58.485Z,16.90
2018-02-07T13:43:24.800Z,16.79
2018-02-07T13:45:51.049Z,16.60
2018-02-07T13:48:17.271Z,16.51
2018-02-07T13:50:43.519Z,16.56
2018-02-07T13:53:10.132Z,16.04
2018-02-07T13:55:36.368Z,16.89
2018-02-07T13:58:02.616Z,16.93
2018-02-07T14:00:28.873Z,16.54
2018-02-07T14:02:55.128Z,16.49
2018-02-07T14:05:22.142Z,16.55
2018-02-07T14:07:48.397Z,17.17
2018-02-07T14:10:14.740Z,16.89
2018-02-07T14:12:40.949Z,17.18
2018-02-07T14:15:07.196Z,17.63
2018-02-07T14:17:34.696Z,17.94
2018-02-07T14:20:01.001Z,17.48
2018-02-07T14:22:27.990Z,17.11
2018-02-07T14:24:54.257Z,16.94
2018-02-07T14:27:20.705Z,17.02
2018-02-07T14:29:47.759Z,17.11
2018-02-07T14:32:14.791Z,17.59
2018-02-07T14:34:41.785Z,18.29
2018-02-07T14:37:08.067Z,20.28
2018-02-07T14:39:35.119Z,22.75
2018-02-07T14:42:02.152Z,25.14
2018-02-07T14:44:28.419Z,28.07
2018-02-07T14:46:54.672Z,32.37
2018-02-07T14:49:20.948Z,36.57
2018-02-07T14:51:47.960Z,38.99
2018-02-07T14:54:14.204Z,40.82
2018-02-07T14:56:40.444Z,43.11
2018-02-07T14:59:06.708Z,42.98
2018-02-07T15:01:32.976Z,42.81
2018-02-07T15:03:59.230Z,43.04
2018-02-07T15:06:26.253Z,44.48
2018-02-07T15:08:52.523Z,45.70
2018-02-07T15:11:19.564Z,47.16
2018-02-07T15:13:45.821Z,46.94
2018-02-07T15:16:12.081Z,47.46
2018-02-07T15:18:38.363Z,48.19
2018-02-07T15:21:04.671Z,48.19
2018-02-07T15:23:30.951Z,48.79
2018-02-07T15:25:57.211Z,48.88
2018-02-07T15:28:23.459Z,49.32
2018-02-07T15:30:49.729Z,49.06
2018-02-07T15:33:16.044Z,49.55
2018-02-07T15:35:43.094Z,50.36
2018-02-07T15:38:10.196Z,51.17
2018-02-07T15:40:36.524Z,51.91
2018-02-07T15:43:02.787Z,52.58
2018-02-07T15:45:29.842Z,51.42
2018-02-07T15:47:56.124Z,52.12
2018-02-07T15:50:22.404Z,51.27
2018-02-07T15:52:49.494Z,51.99
2018-02-07T15:55:15.771Z,52.37
2018-02-07T15:57:42.140Z,52.17
2018-02-07T16:00:08.841Z,52.68
2018-02-07T16:02:35.121Z,52.68
2018-02-07T16:05:01.385Z,52.98
2018-02-07T16:07:27.641Z,54.31
2018-02-07T16:09:53.957Z,53.89
2018-02-07T16:12:20.233Z,53.91
2018-02-07T16:14:47.693Z,53.29
2018-02-07T16:17:14.095Z,52.82
2018-02-07T16:19:40.374Z,52.46
2018-02-07T16:22:06.664Z,52.55
2018-02-07T16:24:33.723Z,53.60
2018-02-07T16:27:00.773Z,53.45
2018-02-07T16:29:27.098Z,53.64
2018-02-07T16:31:54.108Z,52.94
2018-02-07T16:34:20.364Z,53.11
2018-02-07T16:36:47.404Z,52.22
2018-02-07T16:39:13.890Z,52.11
2018-02-07T16:41:40.207Z,52.04
2018-02-07T16:44:06.537Z,51.89
2018-02-07T16:46:32.847Z,51.72
2018-02-07T16:48:59.895Z,51.79
2018-02-07T16:51:27.015Z,52.01
2018-02-07T16:53:53.296Z,52.21
2018-02-07T16:56:19.561Z,51.66
2018-02-07T16:58:45.839Z,52.17
2018-02-07T17:01:12.919Z,51.96
2018-02-07T17:03:39.334Z,52.37
2018-02-07T17:06:05.628Z,52.07
2018-02-07T17:08:31.901Z,52.28
2018-02-07T17:10:58.210Z,52.08
2018-02-07T17:13:25.324Z,51.80
2018-02-07T17:15:51.724Z,51.78
2018-02-07T17:18:18.014Z,52.23
2018-02-07T17:20:45.352Z,52.52
2018-02-07T17:23:11.622Z,52.58
2018-02-07T17:25:37.869Z,52.44
2018-02-07T17:28:04.124Z,52.63
2018-02-07T17:30:30.398Z,52.87
2018-02-07T17:32:57.438Z,52.55
2018-02-07T17:35:24.513Z,52.56
2018-02-07T17:37:50.811Z,53.23
2018-02-07T17:40:17.861Z,52.83
2018-02-07T17:42:44.943Z,52.88
2018-02-07T17:45:12.362Z,53.10
2018-02-07T17:47:38.708Z,53.50
2018-02-07T17:50:06.228Z,53.45
2018-02-07T17:52:32.494Z,54.04
2018-02-07T17:54:59.583Z,52.87
2018-02-07T17:57:25.898Z,52.72
2018-02-07T17:59:52.292Z,52.80
2018-02-07T18:02:19.857Z,53.23
2018-02-07T18:04:46.986Z,53.25
2018-02-07T18:07:13.254Z,53.14
2018-02-07T18:09:40.381Z,52.84
2018-02-07T18:12:07.625Z,53.34
2018-02-07T18:14:33.985Z,53.11
2018-02-07T18:17:01.083Z,53.57
2018-02-07T18:19:27.331Z,53.61
2018-02-07T18:21:53.599Z,53.80
2018-02-07T18:24:19.941Z,54.20
2018-02-07T18:26:46.282Z,53.96
2018-02-07T18:29:13.305Z,54.09
2018-02-07T18:31:39.584Z,53.90
2018-02-07T18:34:05.868Z,54.23
2018-02-07T18:36:32.135Z,54.12
2018-02-07T18:38:58.431Z,54.32
2018-02-07T18:41:24.746Z,54.68
2018-02-07T18:43:51.780Z,54.44
2018-02-07T18:46:19.040Z,54.31
2018-02-07T18:48:45.406Z,54.52
2018-02-07T18:51:11.738Z,54.05
2018-02-07T18:53:38.028Z,54.01
2018-02-07T18:56:04.339Z,54.58
2018-02-07T18:58:30.667Z,54.78
2018-02-07T19:00:56.941Z,54.77
2018-02-07T19:03:24.086Z,54.20
2018-02-07T19:05:51.288Z,54.56
2018-02-07T19:08:17.829Z,54.22
2018-02-07T19:10:44.169Z,54.83
2018-02-07T19:13:10.501Z,54.98
2018-02-07T19:15:36.877Z,55.63
2018-02-07T19:18:03.981Z,55.22
2018-02-07T19:20:30.402Z,55.33
2018-02-07T19:22:56.740Z,55.20
2018-02-07T19:25:23.287Z,55.20
2018-02-07T19:27:49.735Z,54.98
2018-02-07T19:30:16.171Z,55.12
2018-02-07T19:32:42.622Z,55.62
2018-02-07T19:35:09.751Z,55.71
2018-02-07T19:37:36.226Z,55.42
2018-02-07T19:40:02.527Z,55.50
2018-02-07T19:42:30.675Z,55.34
2018-02-07T19:44:57.026Z,55.38
2018-02-07T19:47:24.165Z,55.79
2018-02-07T19:49:50.491Z,55.95
2018-02-07T19:52:17.232Z,56.06
2018-02-07T19:54:43.638Z,56.51
2018-02-07T19:57:09.938Z,56.23
2018-02-07T19:59:36.994Z,56.66
2018-02-07T20:02:03.308Z,57.16
2018-02-07T20:04:30.428Z,56.92
2018-02-07T20:06:56.710Z,56.77
2018-02-07T20:09:23.013Z,56.67
2018-02-07T20:11:49.290Z,56.79
2018-02-07T20:14:15.606Z,56.89
2018-02-07T20:16:44.026Z,57.41
2018-02-07T20:19:10.565Z,57.54
2018-02-07T20:21:36.881Z,57.95
2018-02-07T20:24:03.183Z,58.41
2018-02-07T20:26:29.521Z,58.27
2018-02-07T20:28:56.886Z,58.04
2018-02-07T20:31:23.236Z,57.96
2018-02-07T20:33:49.506Z,58.40
2018-02-07T20:36:16.509Z,58.28
2018-02-07T20:38:42.792Z,58.43
2018-02-07T20:41:09.862Z,58.25
2018-02-07T20:43:36.167Z,58.30
2018-02-07T20:46:03.213Z,58.85
2018-02-07T20:48:30.279Z,59.17
2018-02-07T20:50:56.565Z,59.07
2018-02-07T20:53:22.855Z,58.86
2018-02-07T20:55:49.134Z,59.19
2018-02-07T20:58:16.031Z,59.19
2018-02-07T21:00:42.325Z,59.81
2018-02-07T21:03:09.402Z,59.80
2018-02-07T21:05:35.736Z,59.57
2018-02-07T21:08:02.085Z,59.63
2018-02-07T21:10:28.400Z,59.38
2018-02-07T21:12:54.669Z,59.36
2018-02-07T21:15:20.951Z,59.11
2018-02-07T21:17:47.261Z,59.11
2018-02-07T21:20:14.253Z,59.71
2018-02-07T21:22:40.551Z,60.32
2018-02-07T21:25:07.810Z,60.27
2018-02-07T21:27:34.079Z,60.31
2018-02-07T21:30:00.362Z,59.81
2018-02-07T21:32:26.717Z,59.62
2018-02-07T21:34:53.001Z,59.59
2018-02-07T21:37:20.081Z,60.00
2018-02-07T21:39:46.320Z,59.75
2018-02-07T21:42:12.644Z,59.72
2018-02-07T21:44:38.980Z,59.91
2018-02-07T21:47:05.263Z,60.47
2018-02-07T21:49:32.392Z,60.32
2018-02-07T21:51:58.690Z,60.57
2018-02-07T21:54:24.962Z,61.13
2018-02-07T21:56:51.228Z,60.95
2018-02-07T21:59:17.556Z,60.42
2018-02-07T22:01:44.633Z,60.26
2018-02-07T22:04:10.913Z,61.32
2018-02-07T22:06:37.205Z,61.32
2018-02-07T22:09:03.514Z,61.29
2018-02-07T22:11:29.825Z,61.35
2018-02-07T22:13:56.846Z,60.89
2018-02-07T22:16:23.121Z,61.32
2018-02-07T22:18:49.395Z,61.49
2018-02-07T22:21:15.701Z,61.20
2018-02-07T22:23:42.033Z,61.63
2018-02-07T22:26:08.313Z,61.87
2018-02-07T22:28:35.375Z,62.44
2018-02-07T22:31:02.356Z,61.98
2018-02-07T22:33:28.668Z,61.40
2018-02-07T22:35:54.912Z,61.12
2018-02-07T22:38:21.215Z,61.23
2018-02-07T22:40:47.502Z,61.55
2018-02-07T22:43:13.768Z,62.01
2018-02-07T22:45:40.786Z,62.16
2018-02-07T22:48:07.060Z,62.92
2018-02-07T22:50:33.282Z,63.01
2018-02-07T22:52:59.560Z,62.36
2018-02-07T22:55:25.812Z,63.25
2018-02-07T22:57:52.071Z,62.95
2018-02-07T23:00:18.367Z,62.25
2018-02-07T23:02:45.417Z,62.84
2018-02-07T23:05:11.698Z,62.51
2018-02-07T23:07:37.955Z,62.48
2018-02-07T23:10:04.197Z,62.76
2018-02-07T23:12:30.480Z,62.77
2018-02-07T23:14:56.754Z,63.17
2018-02-07T23:17:23.030Z,63.09
2018-02-07T23:19:49.257Z,63.46
2018-02-07T23:22:15.511Z,63.84
2018-02-07T23:24:41.756Z,63.80
2018-02-07T23:27:07.991Z,64.00
2018-02-07T23:29:34.233Z,63.51
2018-02-07T23:32:00.558Z,62.99
2018-02-07T23:34:26.807Z,63.31
2018-02-07T23:36:53.044Z,63.49
2018-02-07T23:39:20.040Z,63.93
2018-02-07T23:41:46.287Z,63.27
2018-02-07T23:44:12.528Z,62.63
2018-02-07T23:46:38.788Z,62.69
2018-02-07T23:49:05.084Z,62.49
2018-02-07T23:51:31.322Z,62.17
2018-02-07T23:53:57.574Z,62.09
2018-02-07T23:56:24.580Z,60.73
2018-02-07T23:58:50.808Z,60.99
